Hovedside
METAR-TAF:

METAR-TAF

Lufthavner :

Nyslott lufthavn

Nyslott, Finland

breddegrad: 61-57N, lengdegrad: 028-57E, høyde over havet: 95 m

Gjeldene værobservasjon

Denne rapporten ble laget for 18 timer og 53 minutter siden, klokken 09:20 UTC
Vind 12 kt fra Sør, skiftende mellom Sørøst og Vest-sørvest
Temperatur 15°C
Luftfuktighet 63%
Trykk
Sikt 10 km eller mer
Spredte skyer i en høyde av 3300 ft

METAR: EFSA 220920Z 19012KT 140V250 9999 SCT033 15/08 Q995

Tid: 07:13 (04:13 UTC)

Varsel

Denne rapporten ble laget for 13 timer og 42 minutter siden, klokken 14:31 UTC
Varsel gyldig fra 22. klokken 15 UTC til 22. klokken 19 UTC
Vind 12 kt fra Sør
Sikt 10 km eller mer
Brutte skyer i en høyde av 2000 ft
Midlertidig
fra 22. klokken 15 UTC til 22. klokken 19 UTC
Vind 15 kt fra Sør med vindkast opp mot 25 kt
Få skyer i en høyde av 3000 ft, Bygeskyer.
regnbyger

TAF: EFSA 221431Z 2215/2219 18012KT 9999 BKN020 TEMPO 2215/2219 18015G25KT SHRA FEW030CB

Værobservasjoner og værvarsel for over 4000 flyplasser (METAR- og TAF-rapporter).

Tilgjengelige stasjoner er representert av de røde og gule prikkene på kartet.

Hold musepekeren over prikken for å se navnet på stasjonen.

Klikk så for å se værobservasjoner og -varsler.

For å forandre kartet kan du klikke på den grønne knappen med svart kryss for å zoome inn, på den grønne knappen med strek for å zoome ut, eller på de grønne pilene for å se tilstøtende kart.


METAR-TAF: